Time;durP1;ratioP1;P1;durP2;ratioP2;P2;SDS_P1;SDS_P2;PMS_P1;PMS_P2;Temp;Humidity;BMP_temperature;BMP_pressure;BME280_temperature;BME280_humidity;BME280_pressure;Samples;Min_cycle;Max_cycle;Signal;HPM_P1;HPM_P2
2022/06/03 00:00:22;;;;;;;18.65;14.50;;;;;;;25.68;60.48;101288.31;6087693;23;20318;-81
2022/06/03 00:03:37;;;;;;;20.00;16.08;;;;;;;25.59;60.99;101295.06;6156165;23;20092;-80
2022/06/03 00:06:03;;;;;;;17.65;15.23;;;;;;;25.55;61.11;101299.28;6156058;23;20366;-80
2022/06/03 00:09:00;;;;;;;17.10;15.35;;;;;;;25.49;61.17;101305.59;6147656;23;20021;-82
2022/06/03 00:11:32;;;;;;;19.70;15.95;;;;;;;25.44;61.45;101308.13;6145981;23;20080;-80
2022/06/03 00:14:17;;;;;;;17.00;14.90;;;;;;;25.38;61.43;101307.94;6155479;23;20461;-81
2022/06/03 00:17:07;;;;;;;18.52;16.52;;;;;;;24.86;61.93;101225.63;6157501;23;20029;-81
2022/06/03 00:19:50;;;;;;;20.47;16.50;;;;;;;25.31;61.83;101304.41;6146420;23;20028;-81
2022/06/03 00:22:46;;;;;;;24.15;18.90;;;;;;;25.32;61.27;101300.66;6156312;23;20025;-81
2022/06/03 00:25:38;;;;;;;24.05;18.73;;;;;;;25.30;61.74;101302.75;6154748;23;20026;-81
2022/06/03 00:28:11;;;;;;;23.83;20.42;;;;;;;25.28;61.71;101309.47;6156654;23;20101;-82
2022/06/03 00:31:01;;;;;;;23.60;21.10;;;;;;;25.24;61.58;101313.66;6157824;23;20029;-81
2022/06/03 00:34:06;;;;;;;27.45;23.42;;;;;;;25.16;61.78;101314.72;6156557;23;20224;-82
2022/06/03 00:37:09;;;;;;;32.08;24.83;;;;;;;25.01;61.90;101309.56;6156328;23;20021;-80
2022/06/03 00:39:45;;;;;;;29.33;23.77;;;;;;;24.95;62.00;101322.13;6157385;23;20358;-81
2022/06/03 00:42:24;;;;;;;30.48;24.70;;;;;;;24.91;62.21;101331.72;6158176;23;20446;-83
2022/06/03 00:45:19;;;;;;;33.17;25.42;;;;;;;24.83;62.23;101329.25;6150088;23;20022;-81
2022/06/03 00:48:37;;;;;;;34.17;26.30;;;;;;;24.83;62.24;101329.25;6151574;23;20022;-82
2022/06/03 00:51:36;;;;;;;32.65;26.48;;;;;;;24.76;61.93;101328.44;6107820;23;20014;-82
2022/06/03 00:54:15;;;;;;;31.15;27.92;;;;;;;24.77;62.00;101329.28;6156258;23;20033;-82
2022/06/03 00:57:01;;;;;;;40.20;29.63;;;;;;;24.64;62.59;101327.44;6156335;23;20017;-81
2022/06/03 00:59:34;;;;;;;37.10;30.48;;;;;;;24.56;62.70;101327.63;6155779;23;20036;-81
2022/06/03 01:02:29;;;;;;;34.60;28.17;;;;;;;24.09;62.92;101249.00;6156857;23;20052;-81
2022/06/03 01:05:02;;;;;;;36.90;29.15;;;;;;;24.42;63.22;101311.34;6161459;23;20024;-82
2022/06/03 01:07:48;;;;;;;36.22;29.75;;;;;;;24.39;63.37;101311.75;6151081;23;20481;-80
2022/06/03 01:10:39;;;;;;;34.53;30.85;;;;;;;24.43;63.35;101307.59;6151426;23;20017;-81
2022/06/03 01:13:32;;;;;;;36.45;30.60;;;;;;;22.99;63.09;101061.59;6161599;23;20025;-81
2022/06/03 01:16:33;;;;;;;40.60;32.63;;;;;;;24.41;63.18;101303.41;6161166;23;20075;-80
2022/06/03 01:19:39;;;;;;;38.03;33.53;;;;;;;24.23;63.96;101325.78;6161635;23;20259;-81
2022/06/03 01:22:43;;;;;;;35.67;31.67;;;;;;;24.17;64.25;101334.72;6161306;23;20021;-81
2022/06/03 01:25:36;;;;;;;37.28;32.20;;;;;;;23.73;64.26;101262.94;6151220;23;20091;-81
2022/06/03 01:28:36;;;;;;;43.50;33.75;;;;;;;24.12;64.48;101337.25;6187483;23;20025;-80
2022/06/03 01:31:22;;;;;;;36.28;32.45;;;;;;;24.10;64.58;101341.00;6161182;23;20028;-81
2022/06/03 01:34:30;;;;;;;41.28;33.78;;;;;;;23.18;65.12;101206.16;6151247;23;20185;-81
2022/06/03 01:37:15;;;;;;;39.63;32.70;;;;;;;24.05;64.64;101348.06;6114213;23;20313;-81
2022/06/03 01:40:08;;;;;;;38.30;33.97;;;;;;;24.01;64.79;101352.25;6163075;23;20021;-81
2022/06/03 01:43:14;;;;;;;37.25;33.22;;;;;;;23.98;65.04;101353.53;6152664;23;20025;-81
2022/06/03 01:45:58;;;;;;;41.95;32.75;;;;;;;23.92;65.32;101357.03;6163155;23;20036;-81
2022/06/03 01:48:46;;;;;;;36.63;31.33;;;;;;;23.87;65.49;101360.38;6155105;23;20025;-81
2022/06/03 01:51:31;;;;;;;44.40;33.28;;;;;;;23.20;65.71;101256.34;6162837;23;20021;-82
2022/06/03 01:54:03;;;;;;;39.05;31.67;;;;;;;23.82;65.93;101370.16;6163128;23;20304;-81
2022/06/03 01:57:02;;;;;;;42.60;32.67;;;;;;;23.54;66.15;101324.19;6162970;23;20461;-80
2022/06/03 01:59:50;;;;;;;38.90;31.60;;;;;;;23.75;66.43;101367.44;6094969;23;20323;-81
2022/06/03 02:02:39;;;;;;;40.65;33.28;;;;;;;23.66;66.46;101371.34;6162573;23;20025;-82
2022/06/03 02:05:33;;;;;;;36.97;30.70;;;;;;;23.67;66.95;101371.13;6162632;23;20016;-82
2022/06/03 02:08:12;;;;;;;38.58;32.33;;;;;;;23.75;66.54;101372.84;6152788;23;20029;-82
2022/06/03 02:11:17;;;;;;;36.03;31.60;;;;;;;23.69;67.07;101370.94;6162764;23;20074;-81
2022/06/03 02:13:52;;;;;;;38.72;32.97;;;;;;;23.33;66.59;101308.94;6038781;23;20019;-81
2022/06/03 02:16:39;;;;;;;36.67;30.92;;;;;;;23.68;66.76;101359.25;6144700;23;20416;-82
2022/06/03 02:19:26;;;;;;;39.30;30.60;;;;;;;23.55;66.84;101342.13;6163225;23;20017;-81
2022/06/03 02:22:04;;;;;;;38.53;31.27;;;;;;;23.31;66.81;101302.88;6159347;23;20033;-81
2022/06/03 02:24:54;;;;;;;40.90;30.35;;;;;;;23.58;66.22;101328.16;6162982;23;20028;-81
2022/06/03 02:27:39;;;;;;;37.17;31.85;;;;;;;23.65;66.37;101348.00;6163279;23;20025;-82
2022/06/03 02:30:24;;;;;;;36.95;31.02;;;;;;;22.45;66.47;101157.16;6162277;23;20091;-82
2022/06/03 02:33:00;;;;;;;37.63;32.28;;;;;;;23.75;66.66;101369.31;6152790;23;20026;-81
2022/06/03 02:36:21;;;;;;;38.47;29.55;;;;;;;22.54;67.49;101218.19;6152530;23;20393;-81
2022/06/03 02:39:33;;;;;;;35.97;30.87;;;;;;;23.59;67.71;101376.75;6105007;23;20087;-80
2022/06/03 02:42:25;;;;;;;36.47;30.77;;;;;;;23.56;67.32;101374.44;6163848;23;20027;-80
2022/06/03 02:45:24;;;;;;;35.53;30.50;;;;;;;23.44;67.60;101351.66;6162001;23;20555;-81
2022/06/03 02:48:04;;;;;;;32.20;28.65;;;;;;;23.52;67.71;101375.03;6136681;23;20043;-81
2022/06/03 02:50:40;;;;;;;39.03;28.80;;;;;;;23.54;67.79;101381.91;6162606;23;20025;-80
2022/06/03 02:53:25;;;;;;;33.63;29.50;;;;;;;23.57;67.74;101375.25;6162257;23;20144;-80
2022/06/03 02:56:14;;;;;;;36.75;30.05;;;;;;;23.63;67.18;101379.88;6162628;23;20021;-81
2022/06/03 02:59:08;;;;;;;36.75;29.83;;;;;;;23.56;67.55;101385.28;6192149;23;20083;-80
2022/06/03 03:01:48;;;;;;;36.97;30.02;;;;;;;23.18;67.28;101333.44;6164992;23;20392;-81
2022/06/03 03:04:36;;;;;;;35.95;29.25;;;;;;;23.50;67.43;101388.81;6164689;23;20509;-79
2022/06/03 03:07:28;;;;;;;36.20;29.38;;;;;;;23.61;66.93;101395.50;6165205;23;20391;-82
2022/06/03 03:10:05;;;;;;;35.60;28.92;;;;;;;23.31;67.00;101346.22;6191875;23;20349;-80
2022/06/03 03:12:34;;;;;;;41.50;28.95;;;;;;;23.66;66.93;101404.69;6161815;23;20020;-80
2022/06/03 03:15:29;;;;;;;37.75;28.70;;;;;;;23.50;66.69;101371.69;6187997;23;20020;-80
2022/06/03 03:18:02;;;;;;;37.38;28.30;;;;;;;23.75;66.43;101401.84;6187973;23;20327;-81
2022/06/03 03:20:56;;;;;;;35.70;29.42;;;;;;;23.71;66.79;101397.84;6188373;23;20029;-79
2022/06/03 03:24:00;;;;;;;41.10;29.65;;;;;;;23.56;67.21;101395.28;6161804;23;20121;-80
2022/06/03 03:26:52;;;;;;;38.72;28.08;;;;;;;23.72;66.82;101396.81;6178325;23;20020;-80
2022/06/03 03:29:37;;;;;;;37.75;30.77;;;;;;;23.50;67.62;101388.81;6177868;23;20075;-80
2022/06/03 03:32:07;;;;;;;37.85;28.58;;;;;;;23.53;67.33;101403.81;6161336;23;20373;-80
2022/06/03 03:34:33;;;;;;;47.17;31.25;;;;;;;23.54;67.50;101411.72;6152588;23;20024;-80
2022/06/03 03:37:21;;;;;;;36.70;32.58;;;;;;;23.58;67.23;101418.44;6161806;23;20079;-79
2022/06/03 03:40:09;;;;;;;41.53;29.35;;;;;;;23.44;67.91;101432.97;6161220;23;20359;-79
2022/06/03 03:43:01;;;;;;;43.05;31.58;;;;;;;23.44;67.91;101422.13;6161219;23;20381;-80
2022/06/03 03:45:31;;;;;;;38.08;29.50;;;;;;;23.49;68.01;101429.66;6187584;23;20025;-80
2022/06/03 03:48:09;;;;;;;35.55;28.08;;;;;;;23.46;67.83;101426.28;6161665;23;20025;-80
2022/06/03 03:50:55;;;;;;;38.20;30.98;;;;;;;23.58;67.62;101414.91;6189376;23;20021;-82
2022/06/03 03:53:37;;;;;;;42.97;29.77;;;;;;;23.32;67.87;101380.38;6164654;23;20017;-80
2022/06/03 03:56:32;;;;;;;35.75;28.60;;;;;;;23.15;67.49;101350.94;6161767;23;20025;-80
2022/06/03 03:59:17;;;;;;;41.13;29.45;;;;;;;23.25;67.50;101356.84;6151752;23;20025;-81
2022/06/03 04:01:53;;;;;;;35.97;28.02;;;;;;;23.58;67.63;101418.44;6161119;23;20210;-81
2022/06/03 04:04:53;;;;;;;37.92;28.40;;;;;;;23.56;67.72;101419.69;6161567;23;20091;-81
2022/06/03 04:07:42;;;;;;;34.47;28.90;;;;;;;23.51;67.74;101409.44;6161754;23;20021;-81
2022/06/03 04:10:36;;;;;;;37.17;27.77;;;;;;;23.56;67.55;101425.09;6161562;23;20024;-81
2022/06/03 04:13:40;;;;;;;35.77;28.57;;;;;;;23.51;67.61;101416.75;6162882;23;20017;-80
2022/06/03 04:16:43;;;;;;;38.08;27.52;;;;;;;23.39;67.99;101446.28;6161607;23;20334;-83
2022/06/03 04:19:15;;;;;;;35.80;26.95;;;;;;;23.44;67.87;101439.22;6187691;23;20368;-81
2022/06/03 04:22:13;;;;;;;37.22;27.55;;;;;;;23.49;67.73;101438.59;6178219;23;20029;-81
2022/06/03 04:24:59;;;;;;;31.45;26.23;;;;;;;23.11;67.31;101371.34;6161592;23;20044;-81
2022/06/03 04:27:45;;;;;;;30.20;25.85;;;;;;;23.49;67.76;101435.91;6161915;23;20032;-80
2022/06/03 04:30:30;;;;;;;32.28;26.15;;;;;;;23.52;67.70;101440.94;6161284;23;20023;-81
2022/06/03 04:33:22;;;;;;;36.03;27.25;;;;;;;23.52;68.02;101443.66;6151436;23;20021;-81
2022/06/03 04:36:30;;;;;;;38.90;27.00;;;;;;;23.24;68.31;101411.19;6177556;23;20025;-80
2022/06/03 04:39:10;;;;;;;29.25;25.08;;;;;;;23.30;68.57;101420.38;6081013;23;20333;-81
2022/06/03 04:42:21;;;;;;;32.28;26.33;;;;;;;23.43;68.19;101429.41;6151614;23;20460;-80
2022/06/03 04:44:56;;;;;;;33.00;26.35;;;;;;;23.48;68.19;101460.50;6014042;23;20034;-79
2022/06/03 04:47:54;;;;;;;33.33;24.08;;;;;;;23.48;68.38;101457.78;6149693;23;20095;-80
2022/06/03 04:50:27;;;;;;;33.33;25.77;;;;;;;23.02;68.31;101391.50;6187617;23;20494;-79
2022/06/03 04:53:35;;;;;;;34.33;26.77;;;;;;;23.53;68.01;101458.84;6160611;23;20083;-80
2022/06/03 04:56:30;;;;;;;43.88;26.17;;;;;;;23.59;67.83;101481.59;6151185;23;20099;-81
2022/06/03 04:59:18;;;;;;;30.40;24.77;;;;;;;23.59;68.52;101479.75;6187332;23;20424;-82
2022/06/03 05:02:07;;;;;;;27.10;24.25;;;;;;;23.59;68.22;101474.31;6161843;23;20033;-81
2022/06/03 05:04:56;;;;;;;28.05;24.27;;;;;;;23.73;67.44;101477.06;6161546;23;20021;-81
2022/06/03 05:08:00;;;;;;;28.23;23.13;;;;;;;23.88;66.99;101461.53;6187707;23;20059;-82
2022/06/03 05:10:42;;;;;;;32.38;24.63;;;;;;;23.91;67.29;101457.56;6186905;23;20397;-81
2022/06/03 05:13:46;;;;;;;26.95;24.08;;;;;;;24.06;67.16;101450.13;6163304;23;20047;-81
2022/06/03 05:16:22;;;;;;;28.17;24.73;;;;;;;24.20;66.78;101456.38;6169750;23;20473;-81
2022/06/03 05:18:48;;;;;;;26.75;23.25;;;;;;;24.18;66.51;101412.38;6162422;23;20029;-82
2022/06/03 05:21:53;;;;;;;28.52;22.80;;;;;;;24.46;66.47;101442.88;6198678;23;20025;-82
2022/06/03 05:24:25;;;;;;;37.65;23.88;;;;;;;24.65;66.41;101443.94;6177571;23;20072;-82
2022/06/03 05:27:06;;;;;;;34.03;23.00;;;;;;;24.56;66.66;101431.59;6182141;23;20095;-83
2022/06/03 05:29:57;;;;;;;28.98;21.85;;;;;;;24.67;66.75;101432.88;6200414;23;20021;-82
2022/06/03 05:32:33;;;;;;;28.53;22.27;;;;;;;24.72;66.74;101438.50;6171675;23;20417;-82
2022/06/03 05:35:19;;;;;;;22.77;20.40;;;;;;;24.81;66.14;101436.41;6162336;23;20025;-82
2022/06/03 05:37:53;;;;;;;24.92;21.05;;;;;;;24.51;65.92;101368.97;6189774;23;20017;-82
2022/06/03 05:40:35;;;;;;;27.25;22.67;;;;;;;24.71;65.15;101377.09;6162950;23;20072;-80
2022/06/03 05:43:05;;;;;;;31.52;20.70;;;;;;;24.89;65.56;101431.59;6162024;23;20354;-83
2022/06/03 05:45:50;;;;;;;26.35;20.23;;;;;;;24.93;65.58;101432.84;6188911;23;20021;-81
2022/06/03 05:48:33;;;;;;;29.23;21.58;;;;;;;24.63;65.41;101388.19;6162422;23;20017;-81
2022/06/03 05:51:05;;;;;;;21.17;18.42;;;;;;;24.73;65.53;101407.59;6154657;23;20072;-81
2022/06/03 05:54:03;;;;;;;38.70;20.13;;;;;;;24.95;65.67;101430.75;6163079;23;20032;-82
2022/06/03 05:56:44;;;;;;;28.38;21.10;;;;;;;24.74;65.69;101399.25;6167097;23;20075;-81
2022/06/03 05:59:27;;;;;;;25.60;20.92;;;;;;;24.93;65.75;101438.28;6189006;23;20345;-81
2022/06/03 06:02:05;;;;;;;26.98;20.33;;;;;;;24.94;66.10;101439.94;6188737;23;20417;-81
2022/06/03 06:04:44;;;;;;;27.40;19.63;;;;;;;25.03;66.05;101428.88;6163161;23;20091;-82
2022/06/03 06:07:35;;;;;;;25.30;19.77;;;;;;;24.85;65.25;101381.44;6189206;23;20028;-82
2022/06/03 06:10:10;;;;;;;25.92;18.38;;;;;;;24.85;65.73;101402.34;6180211;23;20319;-81
2022/06/03 06:12:55;;;;;;;23.67;20.15;;;;;;;25.15;65.65;101452.44;6153399;23;20032;-81
2022/06/03 06:15:59;;;;;;;20.65;18.42;;;;;;;25.16;65.75;101456.00;6163085;23;20079;-81
2022/06/03 06:18:41;;;;;;;26.00;19.33;;;;;;;25.11;66.05;101461.22;6163233;23;20029;-82
2022/06/03 06:21:31;;;;;;;24.33;20.38;;;;;;;25.11;66.27;101466.66;6162559;23;20314;-81
2022/06/03 06:24:12;;;;;;;27.67;19.85;;;;;;;25.14;65.90;101464.34;6161813;23;20536;-81
2022/06/03 06:26:39;;;;;;;32.20;21.33;;;;;;;25.10;65.98;101454.97;6152942;23;20288;-81
2022/06/03 06:29:14;;;;;;;34.30;23.13;;;;;;;25.15;66.61;101467.91;6163073;23;20346;-81
2022/06/03 06:31:52;;;;;;;32.55;21.92;;;;;;;24.94;67.24;101455.41;6163019;23;20028;-81
2022/06/03 06:34:36;;;;;;;30.88;21.95;;;;;;;25.10;67.30;101482.13;6162507;23;20379;-81
2022/06/03 06:37:21;;;;;;;22.77;20.30;;;;;;;25.09;67.79;101474.19;6162847;23;20024;-80
2022/06/03 06:40:15;;;;;;;26.58;20.58;;;;;;;25.13;67.44;101483.59;6162816;23;20103;-80
2022/06/03 06:43:01;;;;;;;26.65;22.08;;;;;;;25.18;67.61;101483.00;6162717;23;20021;-80
2022/06/03 06:45:52;;;;;;;30.15;23.75;;;;;;;25.19;67.87;101485.47;6163374;23;20639;-81
2022/06/03 06:48:51;;;;;;;32.03;25.33;;;;;;;25.15;68.26;101492.38;6167223;23;20029;-80
2022/06/03 06:51:42;;;;;;;41.70;26.33;;;;;;;25.17;68.43;101490.28;6155018;23;20044;-80
2022/06/03 06:54:18;;;;;;;33.13;24.35;;;;;;;25.10;67.97;101465.00;6162870;23;20013;-81
2022/06/03 06:57:00;;;;;;;35.20;25.27;;;;;;;25.22;68.73;101492.38;6162354;23;20378;-81
2022/06/03 06:59:36;;;;;;;34.30;26.02;;;;;;;24.90;68.08;101416.97;6153994;23;20071;-80
2022/06/03 07:02:05;;;;;;;34.50;26.20;;;;;;;25.15;68.06;101446.19;6157396;23;20458;-80
2022/06/03 07:04:41;;;;;;;33.60;26.73;;;;;;;25.46;67.87;101483.53;6148829;23;20025;-81
2022/06/03 07:07:22;;;;;;;44.20;27.55;;;;;;;25.34;68.57;101466.22;6157691;23;20041;-80
2022/06/03 07:10:01;;;;;;;34.42;27.60;;;;;;;24.98;68.58;101406.91;6155672;23;20025;-81
2022/06/03 07:12:56;;;;;;;32.72;26.75;;;;;;;25.30;68.88;101467.69;6155451;23;20021;-81
2022/06/03 07:15:53;;;;;;;34.28;28.15;;;;;;;24.58;69.15;101344.53;6147502;23;20032;-81
2022/06/03 07:21:51;;;;;;;33.38;27.50;;;;;;;25.66;67.50;101450.03;6157278;23;20018;-82
2022/06/03 07:24:28;;;;;;;36.28;29.92;;;;;;;25.50;67.50;101432.28;6156945;23;20377;-80
2022/06/03 07:27:00;;;;;;;43.22;29.92;;;;;;;25.53;67.69;101449.00;6156887;23;20021;-81
2022/06/03 07:29:34;;;;;;;37.13;26.15;;;;;;;25.52;67.29;101416.59;6157125;23;20025;-81
2022/06/03 07:32:11;;;;;;;31.67;26.67;;;;;;;25.60;67.11;101421.78;6156741;23;20017;-80
2022/06/03 07:34:50;;;;;;;44.85;28.92;;;;;;;25.75;67.16;101441.41;6156391;23;20025;-81
2022/06/03 07:37:40;;;;;;;39.50;29.02;;;;;;;25.60;67.46;101410.91;6157174;23;20671;-82
2022/06/03 07:40:06;;;;;;;41.40;26.88;;;;;;;25.57;66.91;101381.44;6157046;23;20017;-82
2022/06/03 07:42:36;;;;;;;38.38;26.20;;;;;;;25.88;66.61;101424.19;6157688;23;20068;-82
2022/06/03 07:45:09;;;;;;;39.30;25.17;;;;;;;25.98;66.18;101419.09;6158291;23;20032;-82
2022/06/03 07:47:36;;;;;;;38.10;24.52;;;;;;;25.93;66.05;101424.38;6161099;23;20025;-82
2022/06/03 07:50:10;;;;;;;30.17;25.17;;;;;;;24.83;65.92;101236.94;6150664;23;20021;-81
2022/06/03 07:52:43;;;;;;;32.05;22.90;;;;;;;25.88;65.92;101416.03;6149307;23;20128;-82
2022/06/03 07:55:19;;;;;;;32.65;23.60;;;;;;;25.33;65.07;101329.50;6159864;23;20116;-81
2022/06/03 07:58:01;;;;;;;32.28;22.88;;;;;;;25.55;65.93;101383.53;6156675;23;20414;-82
2022/06/03 08:00:28;;;;;;;43.03;25.45;;;;;;;25.69;66.40;101412.34;6163238;23;20461;-81
2022/06/03 08:03:28;;;;;;;34.30;26.27;;;;;;;25.91;65.96;101422.94;6157710;23;20025;-80
2022/06/03 08:06:01;;;;;;;33.50;22.42;;;;;;;25.93;64.81;101431.72;6143596;23;20080;-81
2022/06/03 08:11:18;;;;;;;26.38;20.63;;;;;;;26.07;64.77;101470.53;6158123;23;20021;-80
2022/06/03 08:13:52;;;;;;;32.05;20.25;;;;;;;26.08;64.97;101454.00;6147031;23;20357;-81
2022/06/03 08:16:29;;;;;;;28.75;17.40;;;;;;;26.35;62.94;101464.72;6148723;23;20092;-81
2022/06/03 08:19:11;;;;;;;31.58;18.15;;;;;;;26.04;63.25;101395.63;6147151;23;20030;-79
2022/06/03 08:21:42;;;;;;;25.02;15.85;;;;;;;26.27;63.02;101433.16;6156954;23;20113;-81
2022/06/03 08:24:15;;;;;;;20.42;13.30;;;;;;;26.37;61.59;101435.38;6156604;23;20386;-82
2022/06/03 08:26:46;;;;;;;22.50;13.93;;;;;;;26.39;61.66;101452.34;6157111;23;20025;-80
2022/06/03 08:29:24;;;;;;;19.92;13.68;;;;;;;26.40;61.13;101449.38;6156953;23;20387;-82
2022/06/03 08:31:52;;;;;;;20.58;13.73;;;;;;;26.69;60.71;101436.19;6156694;23;20109;-79
2022/06/03 08:34:32;;;;;;;19.75;13.13;;;;;;;25.77;59.87;101300.56;6157813;23;20409;-80
2022/06/03 08:37:00;;;;;;;18.77;14.20;;;;;;;25.82;61.05;101331.72;6156500;23;20087;-81
2022/06/03 08:39:31;;;;;;;19.33;14.70;;;;;;;26.63;60.90;101435.19;6156598;23;20087;-81
2022/06/03 08:42:30;;;;;;;29.13;15.47;;;;;;;26.62;61.02;101449.03;6158471;23;20028;-80
2022/06/03 08:45:15;;;;;;;23.58;15.48;;;;;;;26.73;61.04;101464.66;6146971;23;20272;-80
2022/06/03 08:47:52;;;;;;;20.63;14.85;;;;;;;26.13;61.31;101388.88;6158422;23;20076;-81
2022/06/03 08:50:51;;;;;;;21.08;17.58;;;;;;;26.63;61.54;101492.38;6148730;23;20023;-79
2022/06/03 08:53:51;;;;;;;28.33;15.57;;;;;;;26.69;61.29;101500.72;6160019;23;20076;-80
2022/06/03 08:56:25;;;;;;;24.63;16.17;;;;;;;26.75;61.12;101488.94;6156435;23;20018;-81
2022/06/03 08:59:01;;;;;;;29.35;17.63;;;;;;;26.78;61.06;101461.25;6158333;23;20076;-81
2022/06/03 09:01:36;;;;;;;24.83;16.55;;;;;;;26.56;60.64;101428.16;6159971;23;20465;-81
2022/06/03 09:04:21;;;;;;;24.73;15.18;;;;;;;26.95;60.45;101478.69;6163064;23;20045;-82
2022/06/03 09:06:50;;;;;;;22.67;15.13;;;;;;;26.92;59.82;101468.25;6153558;23;20021;-82
2022/06/03 09:09:43;;;;;;;22.23;13.98;;;;;;;27.06;59.15;101485.28;6163424;23;20021;-81
2022/06/03 09:12:19;;;;;;;23.10;15.32;;;;;;;27.03;59.74;101486.56;6163046;23;20021;-81
2022/06/03 09:14:49;;;;;;;15.82;12.95;;;;;;;27.20;59.56;101500.47;6153899;23;20061;-81
2022/06/03 09:17:25;;;;;;;24.05;15.20;;;;;;;27.09;59.69;101473.97;6189756;23;20024;-82
2022/06/03 09:20:00;;;;;;;19.60;13.73;;;;;;;27.07;59.68;101438.75;6178599;23;20021;-82
2022/06/03 09:22:31;;;;;;;17.50;13.35;;;;;;;26.82;59.09;101391.63;6153878;23;20083;-80
2022/06/03 09:25:00;;;;;;;;;;;;;;;27.38;58.20;101477.88;6154147;23;20473;-81
2022/06/03 09:27:30;;;;;;;19.50;14.63;;;;;;;26.80;58.45;101391.06;6164383;23;19947;-81
2022/06/03 09:30:02;;;;;;;18.98;13.30;;;;;;;26.68;58.53;101331.06;6188996;23;20031;-80
2022/06/03 09:32:45;;;;;;;21.60;13.38;;;;;;;26.70;58.28;101333.53;6181181;23;20025;-80
2022/06/03 09:35:16;;;;;;;19.75;12.75;;;;;;;27.48;58.37;101461.81;6166223;23;20036;-82
2022/06/03 09:37:50;;;;;;;16.10;12.63;;;;;;;27.11;57.01;101397.41;6160982;23;20047;-80
2022/06/03 09:40:22;;;;;;;19.45;12.52;;;;;;;26.69;57.22;101354.47;6171694;23;20056;-82
2022/06/03 09:42:55;;;;;;;21.15;13.52;;;;;;;27.37;57.70;101454.38;6202177;23;20028;-83
2022/06/03 09:45:24;;;;;;;19.88;12.75;;;;;;;27.11;56.97;101397.41;6191685;23;20079;-82
2022/06/03 09:47:55;;;;;;;18.23;13.27;;;;;;;26.72;57.50;101358.66;6153954;23;20100;-82
2022/06/03 09:50:24;;;;;;;18.65;13.32;;;;;;;27.07;57.63;101416.13;6190920;23;20453;-82
2022/06/03 09:53:12;;;;;;;17.77;13.20;;;;;;;27.19;58.23;101421.69;6153927;23;20024;-82
2022/06/03 09:55:43;;;;;;;16.88;11.93;;;;;;;27.00;57.43;101369.88;6153000;23;20021;-81
2022/06/03 09:58:15;;;;;;;19.00;14.02;;;;;;;27.07;57.43;101364.34;6189046;23;20021;-80
2022/06/03 10:00:47;;;;;;;20.65;13.00;;;;;;;26.20;57.28;101225.56;6152879;23;20450;-82
2022/06/03 10:03:15;;;;;;;20.70;12.43;;;;;;;26.36;57.04;101256.78;6159903;23;20036;-81
2022/06/03 10:05:46;;;;;;;21.55;12.50;;;;;;;26.37;56.74;101255.75;6151401;23;20457;-80
2022/06/03 10:08:20;;;;;;;17.40;13.10;;;;;;;26.11;55.78;101221.44;6164148;23;20023;-81
2022/06/03 10:13:42;;;;;;;19.73;13.98;;;;;;;27.53;56.34;101461.13;6189207;23;20025;-80
2022/06/03 10:16:13;;;;;;;23.25;13.65;;;;;;;27.42;55.99;101419.09;6162600;23;20075;-80
2022/06/03 10:18:48;;;;;;;23.23;13.05;;;;;;;27.01;55.68;101374.25;6163415;23;20028;-79
2022/06/03 10:21:15;;;;;;;24.92;14.25;;;;;;;27.64;55.97;101471.25;6162921;23;20017;-81
2022/06/03 10:23:51;;;;;;;23.77;14.35;;;;;;;26.92;55.08;101342.09;6162918;23;20024;-80
2022/06/03 10:26:24;;;;;;;15.02;12.90;;;;;;;27.57;54.70;101436.94;6188510;23;20017;-80
2022/06/03 10:28:53;;;;;;;17.90;14.90;;;;;;;27.62;55.50;101442.53;6162851;23;20055;-81
2022/06/03 10:31:26;;;;;;;17.92;13.05;;;;;;;27.82;55.54;101467.72;6162800;23;20027;-80
2022/06/03 10:33:56;;;;;;;23.00;15.75;;;;;;;27.84;55.06;101448.38;6188771;23;20076;-82
2022/06/03 10:36:31;;;;;;;17.17;13.13;;;;;;;27.54;55.48;101416.44;6162222;23;20017;-80
2022/06/03 10:38:57;;;;;;;21.38;13.82;;;;;;;27.65;56.12;101448.38;6161463;23;20021;-82
2022/06/03 10:41:39;;;;;;;22.55;14.55;;;;;;;27.49;57.04;101422.56;6161282;23;20036;-84
2022/06/03 10:44:25;;;;;;;29.33;15.63;;;;;;;26.88;56.84;101325.38;6152230;23;20029;-83
2022/06/03 10:47:02;;;;;;;18.95;14.25;;;;;;;26.61;56.80;101265.75;6162326;23;20036;-81
2022/06/03 10:49:31;;;;;;;21.55;14.18;;;;;;;27.58;57.03;101405.91;6188062;23;20017;-81
2022/06/03 11:03:31;;;;;;;16.88;14.10;;;;;;;27.47;56.67;101454.66;6188627;23;20465;-80
2022/06/03 11:06:17;;;;;;;18.50;14.38;;;;;;;27.02;57.16;101365.03;6163090;23;20095;-79
2022/06/03 11:08:59;;;;;;;19.85;14.65;;;;;;;27.09;57.13;101378.59;6153246;23;20025;-79
2022/06/03 11:11:44;;;;;;;23.02;15.43;;;;;;;27.53;56.97;101438.50;6188001;23;20100;-81
2022/06/03 11:14:24;;;;;;;18.10;15.00;;;;;;;27.24;57.50;101438.19;6161955;23;20013;-80
2022/06/03 11:17:07;;;;;;;27.08;17.35;;;;;;;27.26;58.10;101464.16;6161816;23;20017;-78
2022/06/03 11:19:45;;;;;;;27.15;15.15;;;;;;;27.19;58.35;101462.56;6161434;23;20047;-80
2022/06/03 11:22:17;;;;;;;20.90;15.40;;;;;;;26.85;58.66;101381.13;6161481;23;20021;-80
2022/06/03 11:24:54;;;;;;;24.63;16.50;;;;;;;27.05;58.52;101413.63;6161851;23;20040;-80
2022/06/03 11:27:32;;;;;;;25.52;15.38;;;;;;;27.14;58.81;101421.47;6161880;23;20024;-79
2022/06/03 11:30:11;;;;;;;21.92;15.57;;;;;;;27.00;58.49;101426.25;6152119;23;20031;-80
2022/06/03 11:32:40;;;;;;;19.63;14.27;;;;;;;26.97;58.23;101405.75;6161667;23;20104;-80
2022/06/03 11:35:14;;;;;;;28.40;16.52;;;;;;;27.12;61.26;101404.53;6161901;23;20227;-81
2022/06/03 11:37:47;;;;;;;21.05;15.48;;;;;;;26.39;61.18;101265.34;6187072;23;20024;-80
2022/06/03 11:40:51;;;;;;;21.40;15.95;;;;;;;27.06;62.40;101404.41;6162022;23;20021;-78
2022/06/03 11:43:29;;;;;;;23.70;16.33;;;;;;;26.85;60.91;101430.19;6138881;23;20021;-79
2022/06/03 11:46:25;;;;;;;23.88;15.93;;;;;;;26.72;61.58;101456.69;6156069;23;20111;-80
2022/06/03 11:48:53;;;;;;;21.23;16.80;;;;;;;26.57;62.61;101416.19;6162167;23;20021;-80
2022/06/03 11:51:20;;;;;;;25.42;16.65;;;;;;;26.78;63.62;101444.91;6151991;23;20348;-81
2022/06/03 11:53:49;;;;;;;30.45;18.10;;;;;;;26.69;64.27;101440.81;6161999;23;20016;-80
2022/06/03 11:56:22;;;;;;;25.15;17.52;;;;;;;26.76;63.89;101442.41;6187812;23;20017;-80
2022/06/03 11:59:02;;;;;;;22.27;16.92;;;;;;;26.79;63.56;101449.28;6161746;23;20021;-81
2022/06/03 12:01:44;;;;;;;21.13;17.27;;;;;;;26.66;63.95;101435.81;6162292;23;20021;-80
2022/06/03 12:04:50;;;;;;;25.75;17.10;;;;;;;26.53;64.66;101429.44;6162426;23;20017;-80
2022/06/03 12:07:57;;;;;;;25.38;16.33;;;;;;;26.68;66.77;101461.78;6188571;23;20025;-80
2022/06/03 12:10:45;;;;;;;26.90;17.75;;;;;;;26.60;64.71;101457.44;6163786;23;20461;-79
2022/06/03 12:13:27;;;;;;;27.48;19.13;;;;;;;26.63;65.01;101465.16;6165344;23;20024;-80
2022/06/03 12:16:02;;;;;;;24.10;18.75;;;;;;;26.63;65.37;101456.97;6152832;23;20373;-80
2022/06/03 12:18:31;;;;;;;23.40;17.40;;;;;;;26.22;65.89;101379.38;6162572;23;20021;-79
2022/06/03 12:21:08;;;;;;;23.58;19.48;;;;;;;26.10;65.78;101366.72;6152042;23;20021;-81
2022/06/03 12:23:38;;;;;;;28.05;18.95;;;;;;;26.47;65.91;101443.88;6161679;23;20025;-81
2022/06/03 12:26:11;;;;;;;24.80;19.95;;;;;;;26.45;67.07;101413.31;6178221;23;20256;-81
2022/06/03 12:28:41;;;;;;;26.60;20.02;;;;;;;26.08;66.43;101342.44;6162094;23;20095;-82
2022/06/03 12:31:17;;;;;;;29.70;19.25;;;;;;;26.50;67.07;101408.03;6162556;23;20453;-83
2022/06/03 12:34:09;;;;;;;26.80;19.30;;;;;;;26.47;67.38;101413.94;6153793;23;20068;-81
2022/06/03 12:36:50;;;;;;;28.30;20.30;;;;;;;26.51;66.32;101426.06;6163518;23;20345;-81
2022/06/03 12:39:55;;;;;;;28.23;19.48;;;;;;;26.52;65.46;101422.25;6163208;23;20025;-81